Time;durP1;ratioP1;P1;durP2;ratioP2;P2;SDS_P1;SDS_P2;PMS_P1;PMS_P2;Temp;Humidity;BMP_temperature;BMP_pressure;BME280_temperature;BME280_humidity;BME280_pressure;Samples;Min_cycle;Max_cycle;Signal;HPM_P1;HPM_P2
2020/12/05 00:01:17;;;;;;;9.13;5.88;;;7.60;60.00;;;;;;5079841;28;20033;-66
2020/12/05 00:03:43;;;;;;;13.77;6.45;;;7.60;60.10;;;;;;5077215;28;20063;-65
2020/12/05 00:06:09;;;;;;;8.40;5.93;;;7.60;60.20;;;;;;5038294;28;20040;-65
2020/12/05 00:08:34;;;;;;;9.90;5.90;;;7.50;60.30;;;;;;5051632;28;20047;-65
2020/12/05 00:11:01;;;;;;;10.20;6.35;;;7.50;60.30;;;;;;5051137;28;20036;-65
2020/12/05 00:13:26;;;;;;;11.18;7.03;;;7.50;60.20;;;;;;5050176;28;20048;-66
2020/12/05 00:15:52;;;;;;;10.90;6.13;;;7.60;60.30;;;;;;5037460;28;20020;-65
2020/12/05 00:18:20;;;;;;;10.57;6.50;;;7.60;60.40;;;;;;5055335;28;20033;-66
2020/12/05 00:20:46;;;;;;;9.52;5.65;;;7.50;60.40;;;;;;5051839;28;20024;-66
2020/12/05 00:23:15;;;;;;;11.70;5.43;;;7.50;60.40;;;;;;5059444;28;20045;-66
2020/12/05 00:25:40;;;;;;;7.65;5.25;;;7.50;60.40;;;;;;5051531;28;20042;-66
2020/12/05 00:28:06;;;;;;;9.00;5.40;;;7.50;60.50;;;;;;5057953;28;20044;-66
2020/12/05 00:30:33;;;;;;;7.47;5.20;;;7.50;60.70;;;;;;5042121;28;20079;-66
2020/12/05 00:33:00;;;;;;;12.77;5.38;;;7.40;60.70;;;;;;5070617;28;20115;-66
2020/12/05 00:35:26;;;;;;;9.00;5.50;;;7.50;60.70;;;;;;5071304;28;20105;-66
2020/12/05 00:37:52;;;;;;;9.20;5.03;;;7.50;60.60;;;;;;5053335;28;20112;-65
2020/12/05 00:40:18;;;;;;;10.75;5.90;;;7.50;60.60;;;;;;5052166;28;20214;-66
2020/12/05 00:42:43;;;;;;;8.13;5.20;;;7.40;60.60;;;;;;5037145;28;20472;-67
2020/12/05 00:45:09;;;;;;;11.68;7.28;;;7.40;60.70;;;;;;5057340;28;20033;-66
2020/12/05 00:47:35;;;;;;;14.02;6.80;;;7.40;60.70;;;;;;5075247;28;20036;-67
2020/12/05 00:50:00;;;;;;;13.77;6.68;;;7.40;60.60;;;;;;5052585;28;20029;-66
2020/12/05 00:52:26;;;;;;;13.98;6.78;;;7.40;60.60;;;;;;5053831;28;20086;-66
2020/12/05 00:54:51;;;;;;;9.20;5.95;;;7.40;60.60;;;;;;5021968;28;20101;-66
2020/12/05 00:57:17;;;;;;;12.82;5.40;;;7.40;60.60;;;;;;5073224;28;20025;-66
2020/12/05 00:59:43;;;;;;;8.52;5.95;;;7.40;60.70;;;;;;5074977;28;20238;-66
2020/12/05 01:02:08;;;;;;;9.98;5.13;;;7.40;60.70;;;;;;5074797;28;20020;-66
2020/12/05 01:04:34;;;;;;;10.32;5.32;;;7.40;60.70;;;;;;5074460;28;20493;-69
2020/12/05 01:07:00;;;;;;;8.27;5.57;;;7.40;60.80;;;;;;5074622;28;20376;-66
2020/12/05 01:09:25;;;;;;;8.43;6.10;;;7.40;61.00;;;;;;5039363;28;20029;-65
2020/12/05 01:11:51;;;;;;;9.30;6.25;;;7.30;61.00;;;;;;5074482;28;20028;-65
2020/12/05 01:14:16;;;;;;;7.97;5.40;;;7.30;61.10;;;;;;5056770;28;20036;-66
2020/12/05 01:16:44;;;;;;;8.32;5.45;;;7.30;61.10;;;;;;5073279;28;20107;-65
2020/12/05 01:19:10;;;;;;;9.65;5.38;;;7.30;61.20;;;;;;5074704;28;20032;-65
2020/12/05 01:21:36;;;;;;;8.18;5.53;;;7.20;61.10;;;;;;5056873;28;20585;-66
2020/12/05 01:24:02;;;;;;;13.50;5.65;;;7.20;61.30;;;;;;5056116;28;20068;-65
2020/12/05 01:26:27;;;;;;;12.45;5.78;;;7.20;61.40;;;;;;5074331;28;20456;-65
2020/12/05 01:28:53;;;;;;;7.28;5.32;;;7.10;61.40;;;;;;5056291;28;20032;-68
2020/12/05 01:31:18;;;;;;;6.60;5.00;;;7.20;61.50;;;;;;5056056;28;20103;-66
2020/12/05 01:33:44;;;;;;;11.70;5.80;;;7.10;61.40;;;;;;5056427;28;20124;-66
2020/12/05 01:36:10;;;;;;;7.38;4.97;;;7.20;61.40;;;;;;5055910;28;20465;-66
2020/12/05 01:38:36;;;;;;;9.77;4.85;;;7.20;61.40;;;;;;5055463;28;20043;-65
2020/12/05 01:41:01;;;;;;;7.50;5.03;;;7.10;61.40;;;;;;5072925;28;20400;-66
2020/12/05 01:43:31;;;;;;;7.63;4.78;;;7.10;61.50;;;;;;5074045;28;20036;-65
2020/12/05 01:45:59;;;;;;;9.07;4.70;;;7.10;61.50;;;;;;5074065;28;20028;-65
2020/12/05 01:48:25;;;;;;;8.10;4.90;;;7.10;61.60;;;;;;5043393;28;20029;-65
2020/12/05 01:50:53;;;;;;;9.80;5.80;;;7.10;61.60;;;;;;5053996;28;20359;-64
2020/12/05 01:53:19;;;;;;;7.18;4.80;;;7.10;61.60;;;;;;5061093;28;20032;-65
2020/12/05 01:55:47;;;;;;;8.68;4.57;;;7.10;61.50;;;;;;5072741;28;20032;-65
2020/12/05 01:58:13;;;;;;;10.02;5.03;;;7.10;61.60;;;;;;5055496;28;20511;-65
2020/12/05 02:00:40;;;;;;;8.07;4.93;;;7.00;61.60;;;;;;5073757;28;20028;-65
2020/12/05 02:03:06;;;;;;;7.25;4.72;;;7.00;61.60;;;;;;5052318;28;20044;-65
2020/12/05 02:05:37;;;;;;;8.05;5.38;;;7.00;61.70;;;;;;5054763;28;20052;-65
2020/12/05 02:08:14;;;;;;;12.73;5.63;;;7.00;61.70;;;;;;5072749;28;20084;-65
2020/12/05 02:10:45;;;;;;;8.38;4.82;;;7.10;61.70;;;;;;5054575;28;20032;-64
2020/12/05 02:13:18;;;;;;;8.02;5.38;;;7.10;61.70;;;;;;5055539;28;20029;-65
2020/12/05 02:15:46;;;;;;;7.20;4.45;;;7.10;61.70;;;;;;5073230;28;20851;-65
2020/12/05 02:18:13;;;;;;;7.95;5.22;;;7.10;61.70;;;;;;5073437;28;20016;-66
2020/12/05 02:20:39;;;;;;;8.20;5.00;;;7.10;61.80;;;;;;5073575;28;20024;-65
2020/12/05 02:23:18;;;;;;;6.07;4.50;;;7.10;61.70;;;;;;5072371;28;20036;-65
2020/12/05 02:25:48;;;;;;;6.57;4.53;;;7.10;61.80;;;;;;5072413;28;20040;-65
2020/12/05 02:28:17;;;;;;;7.55;4.38;;;7.10;61.80;;;;;;5055239;28;20029;-64
2020/12/05 02:30:43;;;;;;;9.70;5.03;;;7.10;61.80;;;;;;5055206;28;20161;-66
2020/12/05 02:33:08;;;;;;;6.53;4.95;;;7.10;61.80;;;;;;5071819;28;20037;-65
2020/12/05 02:35:35;;;;;;;6.70;4.47;;;7.10;61.80;;;;;;5055224;28;20035;-66
2020/12/05 02:38:22;;;;;;;6.75;4.95;;;7.10;61.80;;;;;;5054392;28;20094;-65
2020/12/05 02:40:48;;;;;;;9.32;5.80;;;7.10;61.90;;;;;;5072612;28;20039;-65
2020/12/05 02:43:14;;;;;;;8.15;4.97;;;7.10;61.90;;;;;;5072839;28;20032;-66
2020/12/05 02:45:40;;;;;;;6.95;5.35;;;7.20;62.00;;;;;;5072841;28;20499;-66
2020/12/05 02:48:07;;;;;;;8.63;5.22;;;7.20;61.90;;;;;;5055093;28;20801;-66
2020/12/05 02:50:33;;;;;;;9.38;5.25;;;7.20;61.90;;;;;;5070793;28;20105;-66
2020/12/05 02:52:59;;;;;;;9.70;5.90;;;7.30;61.90;;;;;;5067202;28;20028;-66
2020/12/05 02:55:27;;;;;;;11.13;5.40;;;7.30;62.00;;;;;;5070555;28;20052;-66
2020/12/05 02:57:52;;;;;;;7.13;5.18;;;7.30;62.00;;;;;;5035068;28;20472;-66
2020/12/05 03:00:19;;;;;;;7.25;5.05;;;7.30;62.10;;;;;;5053675;28;20032;-67
2020/12/05 03:02:44;;;;;;;9.77;5.05;;;7.30;62.10;;;;;;5071364;28;20522;-67
2020/12/05 03:05:10;;;;;;;9.55;5.07;;;7.30;62.10;;;;;;5068193;28;20074;-65
2020/12/05 03:07:36;;;;;;;9.93;6.57;;;7.30;62.30;;;;;;5071500;28;20043;-65
2020/12/05 03:10:01;;;;;;;8.82;5.80;;;7.30;62.30;;;;;;5052858;28;20111;-65
2020/12/05 03:12:27;;;;;;;9.68;5.50;;;7.30;62.40;;;;;;5071427;28;20429;-64
2020/12/05 03:14:52;;;;;;;8.60;5.00;;;7.30;62.50;;;;;;5071593;28;20032;-65
2020/12/05 03:17:18;;;;;;;7.20;5.30;;;7.40;62.50;;;;;;5072157;28;20056;-66
2020/12/05 03:19:44;;;;;;;7.57;5.38;;;7.40;62.40;;;;;;5072484;28;20072;-66
2020/12/05 03:22:09;;;;;;;7.65;5.80;;;7.40;62.30;;;;;;5061274;28;20508;-66
2020/12/05 03:24:35;;;;;;;7.45;5.53;;;7.50;62.30;;;;;;5033820;28;20045;-67
2020/12/05 03:27:01;;;;;;;8.55;5.53;;;7.40;62.40;;;;;;5052103;28;20121;-64
2020/12/05 03:29:26;;;;;;;8.35;5.68;;;7.40;62.50;;;;;;5034252;28;20025;-65
2020/12/05 03:31:59;;;;;;;10.13;5.50;;;7.40;63.00;;;;;;5052130;28;20078;-66
2020/12/05 03:34:25;;;;;;;7.95;5.10;;;7.40;62.50;;;;;;5052020;28;20033;-65
2020/12/05 03:36:50;;;;;;;7.88;5.78;;;7.40;62.50;;;;;;5061317;28;20051;-66
2020/12/05 03:39:16;;;;;;;7.40;4.93;;;7.40;62.50;;;;;;5054082;28;20071;-65
2020/12/05 03:41:42;;;;;;;9.13;5.40;;;7.40;62.50;;;;;;5070662;28;20028;-65
2020/12/05 03:44:08;;;;;;;10.68;6.18;;;7.40;62.50;;;;;;5071809;28;20028;-65
2020/12/05 03:46:34;;;;;;;9.32;5.75;;;7.40;62.50;;;;;;5071814;28;20043;-66
2020/12/05 03:49:00;;;;;;;8.40;5.45;;;7.40;62.60;;;;;;5071739;28;20028;-65
2020/12/05 03:51:26;;;;;;;7.40;5.28;;;7.40;62.70;;;;;;5070528;28;20028;-65
2020/12/05 03:53:52;;;;;;;8.43;5.40;;;7.40;62.70;;;;;;5071442;28;20028;-66
2020/12/05 03:56:18;;;;;;;8.82;5.45;;;7.40;62.80;;;;;;5037165;28;20038;-66
2020/12/05 03:58:44;;;;;;;7.55;5.13;;;7.30;63.00;;;;;;5071166;28;20408;-65
2020/12/05 04:01:10;;;;;;;7.45;5.70;;;7.30;63.00;;;;;;5070363;28;20036;-65
2020/12/05 04:03:36;;;;;;;6.45;4.72;;;7.30;63.00;;;;;;5072565;28;20056;-64
2020/12/05 04:06:01;;;;;;;7.00;5.20;;;7.30;63.00;;;;;;5072318;28;20036;-65
2020/12/05 04:08:27;;;;;;;8.25;5.10;;;7.30;63.10;;;;;;5073950;28;20375;-66
2020/12/05 04:10:53;;;;;;;9.80;5.15;;;7.30;63.10;;;;;;5072513;28;20052;-66
2020/12/05 04:13:18;;;;;;;8.93;5.25;;;7.20;63.10;;;;;;5072632;28;20486;-65
2020/12/05 04:15:44;;;;;;;10.25;5.70;;;7.20;63.20;;;;;;5090613;28;20036;-66
2020/12/05 04:18:10;;;;;;;7.63;5.18;;;7.20;63.20;;;;;;5089621;28;20120;-68
2020/12/05 04:20:36;;;;;;;13.40;5.85;;;7.20;63.10;;;;;;5090518;28;20028;-65
2020/12/05 04:23:02;;;;;;;10.18;5.70;;;7.20;63.10;;;;;;5073309;28;20499;-66
2020/12/05 04:25:27;;;;;;;8.10;5.18;;;7.20;63.10;;;;;;5056552;28;20031;-66
2020/12/05 04:27:53;;;;;;;6.70;5.15;;;7.20;63.10;;;;;;5071970;28;20043;-65
2020/12/05 04:30:19;;;;;;;8.80;5.82;;;7.20;63.10;;;;;;5073152;28;20077;-65
2020/12/05 04:32:45;;;;;;;8.73;5.82;;;7.20;63.10;;;;;;5073140;28;20479;-68
2020/12/05 04:35:11;;;;;;;7.97;5.32;;;7.20;63.00;;;;;;5072331;28;20111;-66
2020/12/05 04:37:37;;;;;;;7.68;5.70;;;7.20;63.10;;;;;;5090108;28;20047;-66
2020/12/05 04:40:05;;;;;;;9.27;5.80;;;7.20;63.70;;;;;;5101761;28;20027;-68
2020/12/05 04:42:31;;;;;;;7.50;5.10;;;7.20;63.10;;;;;;5073383;28;20388;-66
2020/12/05 04:44:57;;;;;;;8.65;5.60;;;7.20;63.10;;;;;;5091201;28;20566;-70
2020/12/05 04:47:25;;;;;;;7.85;5.28;;;7.20;63.10;;;;;;5073448;28;20264;-66
2020/12/05 04:49:56;;;;;;;8.57;5.75;;;7.10;63.10;;;;;;5072222;28;20021;-66
2020/12/05 04:52:29;;;;;;;11.25;5.35;;;7.10;63.70;;;;;;5067344;28;20031;-66
2020/12/05 04:54:56;;;;;;;9.27;5.57;;;7.10;63.10;;;;;;5089365;28;20051;-66
2020/12/05 04:57:30;;;;;;;8.60;5.28;;;7.10;63.10;;;;;;5089283;28;20102;-66
2020/12/05 04:59:55;;;;;;;8.18;5.53;;;7.10;63.10;;;;;;5072544;28;20328;-66
2020/12/05 05:02:27;;;;;;;7.88;5.38;;;7.00;63.10;;;;;;5071614;28;20036;-66
2020/12/05 05:04:53;;;;;;;7.63;5.00;;;7.00;63.20;;;;;;5084370;28;20048;-66
2020/12/05 05:07:20;;;;;;;8.93;5.47;;;6.90;63.30;;;;;;5090911;28;20036;-65
2020/12/05 05:09:54;;;;;;;7.50;4.95;;;6.90;63.40;;;;;;5073101;28;20028;-66
2020/12/05 05:12:35;;;;;;;7.45;4.95;;;6.90;63.40;;;;;;5091114;28;20027;-65
2020/12/05 05:15:01;;;;;;;9.95;5.45;;;6.90;63.50;;;;;;5089633;28;20027;-66
2020/12/05 05:17:26;;;;;;;8.82;5.40;;;6.90;63.40;;;;;;5090884;28;20028;-64
2020/12/05 05:19:52;;;;;;;7.03;5.55;;;6.90;63.40;;;;;;5089751;28;20106;-66
2020/12/05 05:22:22;;;;;;;8.18;4.97;;;6.90;63.40;;;;;;5089760;28;20039;-66
2020/12/05 05:25:10;;;;;;;7.70;5.63;;;6.90;63.30;;;;;;5090869;28;20032;-65
2020/12/05 05:27:35;;;;;;;9.15;5.20;;;6.90;63.30;;;;;;5090712;28;20036;-66
2020/12/05 05:30:11;;;;;;;6.80;4.95;;;6.80;63.20;;;;;;5074752;28;20380;-65
2020/12/05 05:32:45;;;;;;;7.32;5.20;;;6.90;63.20;;;;;;5093332;28;20780;-65
2020/12/05 05:35:12;;;;;;;10.23;5.90;;;6.90;63.10;;;;;;5094027;28;20480;-65
2020/12/05 05:37:40;;;;;;;9.43;5.93;;;6.90;63.00;;;;;;5093261;28;20052;-66
2020/12/05 05:40:07;;;;;;;6.63;5.32;;;6.90;63.00;;;;;;5106058;28;20026;-65
2020/12/05 05:42:36;;;;;;;8.00;5.65;;;6.80;63.10;;;;;;5106196;28;20032;-65
2020/12/05 05:45:17;;;;;;;12.35;6.25;;;6.80;63.10;;;;;;5094292;28;20028;-67
2020/12/05 05:47:44;;;;;;;8.98;5.85;;;6.80;63.10;;;;;;5094264;28;20081;-66
2020/12/05 05:50:25;;;;;;;9.18;6.45;;;6.80;63.00;;;;;;5091332;28;20034;-67
2020/12/05 05:53:06;;;;;;;8.80;5.45;;;6.80;63.00;;;;;;5092428;28;20028;-66
2020/12/05 05:55:42;;;;;;;11.45;6.63;;;6.80;63.00;;;;;;5093209;28;20027;-66
2020/12/05 05:58:08;;;;;;;11.15;6.70;;;6.80;63.20;;;;;;5094322;28;20086;-66
2020/12/05 06:00:42;;;;;;;9.13;6.10;;;6.80;63.30;;;;;;5094212;28;20028;-66
2020/12/05 06:03:17;;;;;;;11.23;7.15;;;6.80;63.40;;;;;;5089704;28;20084;-66
2020/12/05 06:05:48;;;;;;;8.60;6.97;;;6.80;63.30;;;;;;5078453;28;20119;-66
2020/12/05 06:08:17;;;;;;;12.57;7.47;;;6.80;63.40;;;;;;5065854;28;20079;-66
2020/12/05 06:10:47;;;;;;;10.75;6.95;;;6.80;63.30;;;;;;5093813;28;20024;-66
2020/12/05 06:13:18;;;;;;;9.60;6.97;;;6.80;63.30;;;;;;5092446;28;20028;-66
2020/12/05 06:15:45;;;;;;;12.18;7.53;;;6.80;63.20;;;;;;5094387;28;20024;-66
2020/12/05 06:18:13;;;;;;;11.68;6.78;;;6.80;63.30;;;;;;5091407;28;20505;-66
2020/12/05 06:20:45;;;;;;;10.15;6.85;;;6.70;63.40;;;;;;5093636;28;20051;-66
2020/12/05 06:23:26;;;;;;;10.80;7.03;;;6.70;63.30;;;;;;5075638;28;20562;-66
2020/12/05 06:25:53;;;;;;;12.50;7.30;;;6.70;63.40;;;;;;5094059;28;20035;-66
2020/12/05 06:28:21;;;;;;;9.70;6.78;;;6.70;63.30;;;;;;5075369;28;20464;-65
2020/12/05 06:30:48;;;;;;;8.05;6.85;;;6.70;63.30;;;;;;5093358;28;20020;-67
2020/12/05 06:33:42;;;;;;;8.48;6.40;;;6.70;63.10;;;;;;5074935;28;20028;-66
2020/12/05 06:36:26;;;;;;;9.98;6.82;;;6.70;63.10;;;;;;5093328;28;20024;-66
2020/12/05 06:39:07;;;;;;;10.50;7.03;;;6.70;63.30;;;;;;5090308;28;20388;-66
2020/12/05 06:41:38;;;;;;;10.55;7.28;;;6.60;63.30;;;;;;5090041;28;20047;-68
2020/12/05 06:44:08;;;;;;;9.48;7.45;;;6.60;63.30;;;;;;5084209;28;20040;-64
2020/12/05 06:46:55;;;;;;;12.77;8.43;;;6.50;63.30;;;;;;5057711;28;20076;-65
2020/12/05 06:49:39;;;;;;;11.60;8.07;;;6.50;63.30;;;;;;5064576;28;20380;-66
2020/12/05 06:52:23;;;;;;;13.60;8.48;;;6.50;63.40;;;;;;5080656;28;21938;-65
2020/12/05 06:55:09;;;;;;;13.30;7.82;;;6.50;63.40;;;;;;5061969;28;20089;-67
2020/12/05 06:57:37;;;;;;;13.32;8.30;;;6.40;63.40;;;;;;5085755;28;20135;-68
2020/12/05 07:00:23;;;;;;;12.02;8.80;;;6.50;63.50;;;;;;5069276;28;20035;-66
2020/12/05 07:02:55;;;;;;;12.20;7.80;;;6.50;63.50;;;;;;5086167;28;20020;-65
2020/12/05 07:05:23;;;;;;;12.60;8.90;;;6.50;63.30;;;;;;5087734;28;20052;-65
2020/12/05 07:07:53;;;;;;;13.07;9.48;;;6.50;63.30;;;;;;5088057;28;20077;-65
2020/12/05 07:10:20;;;;;;;13.95;8.93;;;6.50;63.40;;;;;;5086593;28;20055;-65
2020/12/05 07:12:47;;;;;;;12.98;8.55;;;6.50;63.50;;;;;;5092197;28;20045;-66
2020/12/05 07:15:19;;;;;;;12.18;8.85;;;6.50;63.60;;;;;;5089817;28;20060;-65
2020/12/05 07:17:45;;;;;;;13.57;9.30;;;6.50;63.60;;;;;;5090174;28;20035;-66
2020/12/05 07:20:10;;;;;;;11.18;8.73;;;6.50;63.70;;;;;;5091574;28;20032;-65
2020/12/05 07:22:36;;;;;;;13.75;8.55;;;6.50;63.70;;;;;;5072685;28;20032;-67
2020/12/05 07:25:02;;;;;;;13.43;9.35;;;6.50;63.70;;;;;;5092427;28;20036;-66
2020/12/05 07:27:28;;;;;;;13.75;9.43;;;6.50;63.70;;;;;;5091470;28;20028;-66
2020/12/05 07:29:54;;;;;;;13.95;8.77;;;6.50;63.60;;;;;;5069585;28;20060;-65
2020/12/05 07:32:20;;;;;;;10.20;8.30;;;6.60;63.70;;;;;;5090854;28;20120;-66
2020/12/05 07:34:46;;;;;;;12.38;8.57;;;6.60;63.70;;;;;;5090568;28;20519;-65
2020/12/05 07:37:28;;;;;;;12.27;9.82;;;6.60;63.80;;;;;;5090879;28;20028;-66
2020/12/05 07:39:54;;;;;;;13.40;9.18;;;6.60;63.70;;;;;;5082421;28;20043;-66
2020/12/05 07:42:20;;;;;;;14.95;8.80;;;6.60;63.70;;;;;;5090445;28;20709;-66
2020/12/05 07:44:47;;;;;;;11.50;9.18;;;6.70;63.70;;;;;;5072936;28;20040;-65
2020/12/05 07:47:20;;;;;;;14.27;9.30;;;6.70;63.70;;;;;;5092071;28;20030;-65
2020/12/05 07:49:53;;;;;;;14.95;9.75;;;6.80;63.70;;;;;;5092001;28;20502;-65
2020/12/05 07:52:21;;;;;;;11.55;9.13;;;6.80;63.80;;;;;;5091801;28;20093;-65
2020/12/05 07:55:03;;;;;;;16.30;10.95;;;6.80;63.80;;;;;;5084770;28;20028;-66
2020/12/05 07:57:31;;;;;;;14.48;10.05;;;6.80;63.70;;;;;;5085384;28;20024;-66
2020/12/05 08:00:08;;;;;;;13.60;9.85;;;6.80;63.80;;;;;;5080016;28;20040;-67
2020/12/05 08:02:34;;;;;;;14.25;9.60;;;6.80;63.90;;;;;;5070159;28;20016;-66
2020/12/05 08:05:26;;;;;;;14.90;11.25;;;6.90;64.00;;;;;;5085724;28;20131;-68
2020/12/05 08:08:01;;;;;;;14.83;10.63;;;6.90;64.10;;;;;;5090127;28;21265;-67
2020/12/05 08:10:29;;;;;;;14.52;10.10;;;6.90;64.70;;;;;;5082327;28;20151;-67
2020/12/05 08:13:14;;;;;;;14.18;10.63;;;7.00;64.10;;;;;;5087232;28;20035;-67
2020/12/05 08:15:41;;;;;;;15.52;10.90;;;7.00;64.00;;;;;;5089359;28;20543;-66
2020/12/05 08:18:07;;;;;;;14.82;10.45;;;7.00;64.00;;;;;;5089829;28;20020;-66
2020/12/05 08:20:33;;;;;;;15.90;10.85;;;7.00;64.00;;;;;;5088603;28;20134;-66
2020/12/05 08:22:59;;;;;;;15.80;11.32;;;7.10;64.00;;;;;;5070280;28;20028;-66
2020/12/05 08:25:27;;;;;;;18.25;11.88;;;7.10;64.10;;;;;;5088243;28;20031;-66
2020/12/05 08:27:54;;;;;;;15.43;11.38;;;7.10;64.20;;;;;;5073213;28;20119;-66
2020/12/05 08:30:20;;;;;;;14.20;11.23;;;7.10;64.30;;;;;;5089148;28;20388;-66
2020/12/05 08:32:47;;;;;;;14.27;10.57;;;7.20;64.30;;;;;;5087069;28;20044;-66
2020/12/05 08:35:14;;;;;;;15.85;11.35;;;7.20;64.30;;;;;;5088752;28;20032;-66
2020/12/05 08:37:45;;;;;;;15.60;11.13;;;7.30;64.60;;;;;;5089666;28;20115;-66
2020/12/05 08:40:18;;;;;;;13.48;10.88;;;7.30;64.70;;;;;;5088989;28;20020;-66
2020/12/05 08:42:47;;;;;;;;;;;7.30;64.90;;;;;;5090437;28;20040;-66
2020/12/05 08:45:15;;;;;;;13.20;10.07;;;7.40;64.70;;;;;;5071986;28;20268;-65
2020/12/05 08:47:48;;;;;;;15.02;9.85;;;7.50;64.50;;;;;;5090054;28;20032;-64
2020/12/05 08:50:30;;;;;;;;;;;7.50;64.70;;;;;;5089240;28;20043;-65
2020/12/05 08:53:00;;;;;;;16.35;9.13;;;7.60;64.60;;;;;;5090867;28;19912;-65
2020/12/05 08:55:27;;;;;;;17.05;10.23;;;7.70;64.50;;;;;;5080515;28;20032;-66
2020/12/05 08:57:58;;;;;;;13.88;10.02;;;7.70;64.70;;;;;;5083240;28;20032;-66
2020/12/05 09:00:28;;;;;;;14.75;10.20;;;7.90;64.70;;;;;;5083558;28;21742;-68
2020/12/05 09:02:54;;;;;;;11.90;9.18;;;7.90;64.70;;;;;;5079395;28;20032;-65
2020/12/05 09:05:21;;;;;;;12.68;9.95;;;8.10;64.70;;;;;;5066075;28;20041;-66
2020/12/05 09:07:53;;;;;;;15.25;9.98;;;8.20;64.50;;;;;;5037439;28;20523;-66
2020/12/05 09:10:18;;;;;;;12.90;8.90;;;8.30;64.50;;;;;;5058315;28;20032;-65
2020/12/05 09:12:44;;;;;;;12.65;9.20;;;8.40;64.50;;;;;;5069371;28;20036;-66
2020/12/05 09:15:10;;;;;;;13.23;9.55;;;8.40;64.70;;;;;;5048512;28;20047;-65
2020/12/05 09:17:36;;;;;;;12.75;9.23;;;8.50;64.50;;;;;;5058230;28;20107;-69
2020/12/05 09:20:12;;;;;;;14.30;9.07;;;8.60;64.40;;;;;;5040163;28;20466;-66
2020/12/05 09:22:39;;;;;;;13.18;8.80;;;8.80;64.30;;;;;;5036304;28;20147;-70
2020/12/05 09:25:06;;;;;;;10.85;8.48;;;8.80;64.40;;;;;;5038559;28;20025;-67
2020/12/05 09:27:36;;;;;;;14.23;8.98;;;8.80;64.30;;;;;;5066240;28;20110;-67
2020/12/05 09:30:08;;;;;;;10.80;8.20;;;9.00;64.30;;;;;;5059666;28;20086;-65
2020/12/05 09:32:41;;;;;;;9.90;7.80;;;9.00;64.30;;;;;;5058726;28;20437;-66
2020/12/05 09:35:08;;;;;;;13.48;8.00;;;9.00;64.30;;;;;;5044801;28;20354;-65
2020/12/05 09:37:33;;;;;;;8.88;7.25;;;9.00;64.40;;;;;;5069795;28;20056;-66
2020/12/05 09:39:59;;;;;;;11.90;8.10;;;9.10;64.30;;;;;;5046854;28;20032;-67
2020/12/05 09:42:26;;;;;;;9.98;7.43;;;9.10;64.30;;;;;;5049573;28;20056;-66
2020/12/05 09:44:53;;;;;;;10.98;8.75;;;9.10;64.10;;;;;;5062502;28;20135;-66
2020/12/05 09:47:19;;;;;;;9.98;6.90;;;9.20;64.20;;;;;;5068783;28;20032;-66
2020/12/05 09:49:44;;;;;;;10.73;7.55;;;9.10;64.30;;;;;;5062890;28;20036;-66
2020/12/05 09:52:13;;;;;;;13.40;8.07;;;9.20;64.20;;;;;;5072420;28;20490;-65
2020/12/05 09:54:39;;;;;;;8.18;6.97;;;9.20;64.00;;;;;;5057330;28;20037;-65
2020/12/05 09:57:05;;;;;;;10.00;7.47;;;9.30;64.00;;;;;;5055691;28;20033;-67
2020/12/05 09:59:31;;;;;;;10.13;7.05;;;9.40;63.80;;;;;;5048190;28;20028;-66
2020/12/05 10:01:57;;;;;;;9.77;7.07;;;9.50;63.70;;;;;;5055680;28;20043;-66
2020/12/05 10:04:23;;;;;;;8.48;6.55;;;9.60;63.60;;;;;;5055565;28;20029;-66
2020/12/05 10:06:49;;;;;;;6.65;5.88;;;9.60;63.40;;;;;;5091293;28;20048;-66
2020/12/05 10:09:15;;;;;;;7.40;5.78;;;9.60;63.50;;;;;;5093650;28;20093;-66
2020/12/05 10:11:41;;;;;;;8.80;6.35;;;9.60;63.40;;;;;;5075601;28;20031;-65
2020/12/05 10:14:07;;;;;;;11.07;6.15;;;9.60;63.30;;;;;;5093836;28;20439;-65
2020/12/05 10:16:33;;;;;;;9.40;6.55;;;9.70;63.40;;;;;;5078232;28;20377;-65
2020/12/05 10:19:00;;;;;;;9.65;6.15;;;9.80;63.10;;;;;;5072044;28;20377;-66
2020/12/05 10:21:25;;;;;;;8.90;6.38;;;9.90;62.90;;;;;;5073415;28;20052;-65
2020/12/05 10:23:51;;;;;;;8.98;6.35;;;9.90;62.70;;;;;;5071795;28;20118;-65
2020/12/05 10:26:17;;;;;;;7.75;6.15;;;10.10;62.50;;;;;;5071907;28;20393;-65
2020/12/05 10:28:42;;;;;;;8.00;6.00;;;10.00;62.30;;;;;;5038696;28;20033;-65
2020/12/05 10:31:08;;;;;;;5.55;4.88;;;10.00;62.30;;;;;;5072243;28;20032;-66
2020/12/05 10:33:34;;;;;;;7.43;5.13;;;9.90;62.30;;;;;;5074442;28;20468;-69
2020/12/05 10:35:59;;;;;;;7.15;4.60;;;9.90;62.40;;;;;;5055711;28;20047;-66
2020/12/05 10:38:25;;;;;;;6.10;4.93;;;9.90;62.50;;;;;;5092845;28;20040;-66
2020/12/05 10:40:51;;;;;;;6.28;4.90;;;9.90;62.40;;;;;;5075142;28;20032;-66
2020/12/05 10:43:16;;;;;;;6.22;4.85;;;9.90;62.20;;;;;;5092960;28;20027;-65
2020/12/05 10:45:42;;;;;;;6.00;5.00;;;9.90;61.80;;;;;;5071315;28;20492;-66
2020/12/05 10:48:08;;;;;;;6.82;4.30;;;9.90;61.90;;;;;;5071316;28;20031;-66
2020/12/05 10:50:33;;;;;;;5.88;4.70;;;9.90;62.00;;;;;;5073198;28;20060;-66
2020/12/05 10:52:59;;;;;;;9.30;7.30;;;9.90;62.00;;;;;;5071122;28;20120;-66
2020/12/05 10:55:25;;;;;;;9.48;5.35;;;10.00;61.90;;;;;;5075915;28;20072;-66
2020/12/05 10:57:50;;;;;;;6.45;5.55;;;10.00;61.80;;;;;;5091105;28;20039;-65
2020/12/05 11:00:16;;;;;;;5.15;4.63;;;10.10;61.50;;;;;;5073048;28;20035;-67
2020/12/05 11:02:41;;;;;;;7.25;5.38;;;10.20;61.50;;;;;;5073948;28;20032;-66
2020/12/05 11:05:07;;;;;;;6.00;4.78;;;10.10;61.40;;;;;;5091034;28;20063;-66
2020/12/05 11:07:33;;;;;;;5.60;4.70;;;10.20;61.50;;;;;;5090469;28;20372;-66
2020/12/05 11:09:58;;;;;;;6.80;4.78;;;10.20;61.40;;;;;;5091255;28;20034;-66
2020/12/05 11:12:24;;;;;;;6.28;4.53;;;10.30;61.10;;;;;;5057784;28;20455;-65
2020/12/05 11:14:50;;;;;;;7.38;4.97;;;10.20;61.10;;;;;;5091145;28;20036;-66
2020/12/05 11:17:15;;;;;;;6.80;4.47;;;10.20;61.20;;;;;;5091135;28;20472;-66
2020/12/05 11:19:41;;;;;;;5.63;4.22;;;10.30;61.10;;;;;;5074291;28;20046;-66
2020/12/05 11:22:07;;;;;;;6.43;4.47;;;10.20;60.90;;;;;;5074043;28;20020;-66
2020/12/05 11:24:33;;;;;;;7.13;4.40;;;10.10;61.10;;;;;;5091303;28;20050;-65
2020/12/05 11:26:59;;;;;;;5.72;4.40;;;10.10;61.10;;;;;;5090486;28;20032;-66
2020/12/05 11:29:24;;;;;;;6.03;4.38;;;10.20;61.20;;;;;;5090773;28;20024;-65
2020/12/05 11:31:50;;;;;;;4.50;3.60;;;10.20;61.00;;;;;;5092311;28;20058;-67
2020/12/05 11:34:16;;;;;;;8.82;3.75;;;10.20;60.70;;;;;;5074070;28;20373;-66
2020/12/05 11:36:43;;;;;;;6.72;3.60;;;10.20;60.60;;;;;;5070647;28;20024;-66
2020/12/05 11:39:09;;;;;;;5.65;3.45;;;10.10;60.60;;;;;;5078714;28;20026;-67
2020/12/05 11:41:35;;;;;;;5.53;3.78;;;10.10;60.80;;;;;;5083031;28;20029;-66
2020/12/05 11:44:03;;;;;;;4.88;3.60;;;10.10;60.70;;;;;;5075223;28;20101;-67
2020/12/05 11:46:31;;;;;;;4.88;3.60;;;10.20;60.50;;;;;;5090901;28;20357;-65
2020/12/05 11:48:58;;;;;;;5.07;3.72;;;10.20;60.40;;;;;;5091649;28;20082;-67
2020/12/05 11:51:28;;;;;;;4.78;3.45;;;10.20;60.30;;;;;;5092231;28;20055;-66
2020/12/05 11:53:54;;;;;;;5.28;3.63;;;10.30;60.10;;;;;;5073758;28;20492;-65
2020/12/05 11:56:21;;;;;;;11.07;3.85;;;10.40;60.00;;;;;;5091639;28;20031;-66
2020/12/05 11:58:47;;;;;;;5.82;3.22;;;10.40;59.80;;;;;;5076694;28;20059;-66
2020/12/05 12:01:13;;;;;;;6.07;3.45;;;10.40;59.70;;;;;;5071679;28;20063;-66
2020/12/05 12:03:40;;;;;;;5.50;3.70;;;10.30;59.60;;;;;;5089457;28;20488;-67
2020/12/05 12:06:18;;;;;;;5.32;3.92;;;10.20;59.70;;;;;;5084034;28;20055;-67
2020/12/05 12:08:45;;;;;;;6.70;3.65;;;10.10;59.80;;;;;;5071330;28;20468;-65
2020/12/05 12:11:19;;;;;;;6.43;3.92;;;10.10;60.10;;;;;;5077621;28;20027;-66
2020/12/05 12:13:44;;;;;;;7.95;4.32;;;10.20;59.80;;;;;;5090926;28;20032;-66
2020/12/05 12:16:15;;;;;;;5.57;4.18;;;10.20;59.80;;;;;;5054904;28;20048;-66
2020/12/05 12:18:41;;;;;;;5.15;3.35;;;10.20;59.60;;;;;;5070829;28;20091;-65
2020/12/05 12:21:07;;;;;;;4.93;3.28;;;10.30;59.30;;;;;;5056351;28;20028;-67
2020/12/05 12:23:33;;;;;;;5.60;3.72;;;10.30;59.20;;;;;;5073097;28;20050;-66
2020/12/05 12:25:59;;;;;;;8.10;5.28;;;10.40;59.30;;;;;;5055781;28;20016;-66
2020/12/05 12:28:25;;;;;;;7.85;4.10;;;10.50;58.80;;;;;;5056222;28;20077;-66
2020/12/05 12:30:51;;;;;;;6.03;3.78;;;10.60;58.60;;;;;;5091111;28;20060;-66
2020/12/05 12:33:17;;;;;;;7.32;3.85;;;10.60;58.60;;;;;;5071787;28;20036;-67
2020/12/05 12:35:46;;;;;;;6.47;3.83;;;10.60;58.50;;;;;;5038186;28;20132;-65
2020/12/05 12:38:12;;;;;;;9.68;4.15;;;10.70;58.20;;;;;;5072274;28;20085;-66
2020/12/05 12:40:38;;;;;;;5.40;3.88;;;10.70;58.20;;;;;;5079174;28;20020;-66
2020/12/05 12:43:05;;;;;;;4.82;3.25;;;10.60;58.30;;;;;;5090532;28;20024;-66
2020/12/05 12:45:32;;;;;;;4.85;3.63;;;10.70;58.00;;;;;;5085511;28;20537;-66
2020/12/05 12:50:33;;;;;;;9.05;3.55;;;10.80;57.80;;;;;;5080794;28;20047;-66
2020/12/05 12:52:59;;;;;;;5.53;3.92;;;10.70;58.10;;;;;;5084255;28;20423;-66
2020/12/05 12:55:25;;;;;;;6.70;3.60;;;10.60;58.20;;;;;;5049080;28;20046;-67
2020/12/05 12:57:52;;;;;;;6.38;3.90;;;10.50;58.20;;;;;;5070590;28;20490;-66